Aviation Digital Data Service (ADDS)

Output produced by METARs form (2106 UTC 21 February 2017)
found at http://aviationweather.gov/adds/metars/
 
KAUG 211720Z 2118/2218 17002KT P6SM SCT250 
     FM221100 26003KT 4SM BR BKN050 
     FM221400 29003KT P6SM BKN120 OVC250